Jamestown, ND

10:22 AM CST on February 07, 2016 (GMT -0600)
Jamestown Municipal | | Change Station
CLOSE
Current Station
Airport
Location: Jamestown,
Elevation: 1499 ft
Nearby Weather Stations
Active Advisory: High Wind Warning Active Notice: Public Information Statement

Elev 1499 ft 46.93 °N, 98.67 °W | Updated 26 minutes ago

Overcast
Overcast
33 °F
Feels Like 19 °F
N
29
Wind Variable Wind from NW
Gusts 38 mph

Today
High -- | Low -- °F
--% Chance of Precip.
Yesterday
High -- | Low -- °F
Precip. -- in
Pressure 29.73 in
Visibility 10.0 miles
Clouds Overcast 1900 ft
Windchill 19 °F
Dew Point 27 °F
Humidity 78%
Rainfall 0.00 in
Snow Depth Not available.
7:51 AM 5:46 PM
Waning Crescent, 1% visible
METAR KJMS 071556Z AUTO 31025G33KT 10SM OVC019 01/M03 A2969 RMK AO2 PK WND 31034/1544 SNE44 SLP068 P0000 T00061028
Pressure 29.73 in
Visibility 10.0 miles
Clouds Overcast 1900 ft
Windchill 19 °F
Dew Point 27 °F
Humidity 78%
Rainfall 0.00 in
Snow Depth Not available.
7:51 AM 5:46 PM
Waning Crescent, 1% visible
METAR KJMS 071556Z AUTO 31025G33KT 10SM OVC019 01/M03 A2969 RMK AO2 PK WND 31034/1544 SNE44 SLP068 P0000 T00061028

10-Day Weather Forecast

Almanac

Astronomy

Feb. 07, 2016 Rise Set
Actual Time
Civil Twilight
Nautical Twilight
Astronomical Twilight
Moon
Length of Visible Light
Length of Day
Tomorrow will be .
, % of the Moon is Illuminated

Today's Extremes

State Highs State Lows

Community

WunderPhotos

Upload Photos

1,891,221 photos uploaded!

WunderBlog® & News

Nearby

Air Quality

  Air Quality AQ Index Pollutant
Not available.

Snow Depth

Station Depth Elevation

Earthquake Activity

City Distance Mag. Time & Date
Minimum magnitude displayed is 2.5.

Coastal Water Temperatures

Place Temperature

Stations

Nearby Weather Stations

Station Location Temp. Windchill Dew Point Humidity Wind Precip. Elev Updated Type
                   

Watches & Warnings

High Wind Warning
Issued: 9:05 AM MST Feb. 7, 2016 – National Weather Service

... High Wind Warning remains in effect until 6 am CST /5 am MST/
Monday...

* timing... through tonight.

* Winds... northwest winds gusting up to 65 mph.

* Impacts... travel will be hazardous over western and central
North Dakota. Snow and blowing snow may reduce
visibilities... particularly through late this afternoon.

Precautionary/preparedness actions...

A High Wind Warning means a hazardous high wind event is expected
or occurring. Sustained wind speeds of at least 40 mph or gusts
of 58 mph or more can lead to property damage.



Jjs